Time;durP1;ratioP1;P1;durP2;ratioP2;P2;SDS_P1;SDS_P2;PMS_P1;PMS_P2;Temp;Humidity;BMP_temperature;BMP_pressure;BME280_temperature;BME280_humidity;BME280_pressure;Samples;Min_cycle;Max_cycle;Signal;HPM_P1;HPM_P2
2021/03/18 00:01:13;;;;;;;45.58;25.27;;;;;;;0.48;95.96;99766.27;1749539;82;20935;-42
2021/03/18 00:03:41;;;;;;;45.10;23.83;;;;;;;0.49;95.99;99768.38;1749469;82;21369;-43
2021/03/18 00:06:09;;;;;;;42.13;23.05;;;;;;;0.49;95.96;99770.52;1749462;82;21595;-43
2021/03/18 00:08:38;;;;;;;44.63;23.45;;;;;;;0.47;95.94;99768.38;1749466;82;20951;-43
2021/03/18 00:11:09;;;;;;;42.08;23.02;;;;;;;0.46;95.96;99773.03;1749405;81;21472;-43
2021/03/18 00:13:38;;;;;;;40.78;23.73;;;;;;;0.43;95.86;99767.91;1749569;82;21035;-43
2021/03/18 00:16:06;;;;;;;38.83;22.93;;;;;;;0.42;95.92;99770.02;1749544;82;22114;-43
2021/03/18 00:18:45;;;;;;;43.05;22.45;;;;;;;0.41;95.93;99765.33;1749445;82;21105;-42
2021/03/18 00:21:13;;;;;;;36.58;21.40;;;;;;;0.42;95.98;99758.56;1749477;82;21026;-43
2021/03/18 00:23:41;;;;;;;43.13;22.45;;;;;;;0.44;95.95;99759.43;1749429;82;21092;-43
2021/03/18 00:26:09;;;;;;;44.70;22.50;;;;;;;0.41;95.95;99758.13;1741906;82;21006;-42
2021/03/18 00:28:36;;;;;;;34.50;19.02;;;;;;;0.38;95.98;99755.51;1719626;83;21439;-44
2021/03/18 00:31:07;;;;;;;38.83;21.02;;;;;;;0.38;95.96;99750.42;1719541;83;20979;-43
2021/03/18 00:33:35;;;;;;;35.70;20.02;;;;;;;0.39;95.97;99753.43;1719739;83;21022;-43
2021/03/18 00:36:04;;;;;;;40.80;22.17;;;;;;;0.36;95.96;99752.09;1719563;83;21026;-43
2021/03/18 00:38:31;;;;;;;39.70;21.52;;;;;;;0.35;95.89;99751.66;1719597;83;21067;-43
2021/03/18 00:41:05;;;;;;;40.40;22.85;;;;;;;0.35;95.95;99747.84;1719607;83;22163;-43
2021/03/18 00:43:33;;;;;;;38.42;21.10;;;;;;;0.34;95.95;99744.86;1719498;83;20959;-42
2021/03/18 00:46:00;;;;;;;32.67;19.75;;;;;;;0.34;95.98;99747.00;1720108;83;21054;-42
2021/03/18 00:48:29;;;;;;;35.48;20.62;;;;;;;0.34;95.94;99752.09;1720312;83;21038;-42
2021/03/18 00:50:59;;;;;;;32.55;20.90;;;;;;;0.33;95.92;99750.78;1720426;83;21121;-43
2021/03/18 00:53:34;;;;;;;33.60;20.43;;;;;;;0.32;95.94;99752.49;1720319;82;21637;-41
2021/03/18 00:56:03;;;;;;;32.58;20.43;;;;;;;0.32;95.95;99753.77;1720125;83;21519;-43
2021/03/18 00:58:32;;;;;;;36.93;20.45;;;;;;;0.31;95.92;99755.88;1719781;83;20960;-42
2021/03/18 01:01:01;;;;;;;39.15;21.12;;;;;;;0.32;95.94;99751.63;1719818;83;21041;-44
2021/03/18 01:03:36;;;;;;;37.38;19.95;;;;;;;0.31;95.95;99758.42;1719896;83;21065;-43
2021/03/18 01:06:17;;;;;;;35.28;21.00;;;;;;;0.31;95.96;99753.73;1719761;83;21380;-43
2021/03/18 01:08:45;;;;;;;38.08;20.43;;;;;;;0.32;95.94;99748.67;1719896;83;21098;-43
2021/03/18 01:11:17;;;;;;;40.90;21.68;;;;;;;0.32;95.93;99749.08;1719929;83;20967;-43
2021/03/18 01:13:48;;;;;;;35.92;19.50;;;;;;;0.32;95.92;99748.67;1719845;82;20963;-42
2021/03/18 01:16:19;;;;;;;39.23;21.20;;;;;;;0.31;95.93;99746.97;1719818;83;20931;-43
2021/03/18 01:18:59;;;;;;;48.08;23.75;;;;;;;0.31;95.88;99748.23;1719788;83;21599;-43
2021/03/18 01:21:35;;;;;;;41.90;22.05;;;;;;;0.27;95.90;99751.59;1719818;83;21579;-43
2021/03/18 01:24:04;;;;;;;47.30;22.13;;;;;;;0.24;95.89;99749.84;1719592;83;21038;-43
2021/03/18 01:26:31;;;;;;;42.20;22.55;;;;;;;0.21;95.91;99743.45;1719693;82;21660;-43
2021/03/18 01:28:59;;;;;;;43.58;21.97;;;;;;;0.22;95.93;99745.16;1719794;83;21098;-43
2021/03/18 01:31:27;;;;;;;45.30;22.50;;;;;;;0.23;95.94;99743.45;1719808;83;21257;-43
2021/03/18 01:33:55;;;;;;;39.88;21.55;;;;;;;0.19;95.94;99737.48;1719835;83;21441;-43
2021/03/18 01:36:23;;;;;;;39.48;21.75;;;;;;;0.19;95.91;99737.89;1719767;83;20943;-43
2021/03/18 01:38:51;;;;;;;47.95;21.87;;;;;;;0.19;95.98;99740.03;1719787;83;20951;-43
2021/03/18 01:41:19;;;;;;;40.83;20.90;;;;;;;0.19;95.96;99740.43;1719820;83;20912;-44
2021/03/18 01:43:47;;;;;;;50.48;24.15;;;;;;;0.17;95.97;99736.61;1719792;83;22330;-43
2021/03/18 01:46:15;;;;;;;35.68;19.85;;;;;;;0.17;95.90;99735.34;1719611;83;21151;-42
2021/03/18 01:48:43;;;;;;;42.45;21.45;;;;;;;0.16;95.95;99739.12;1719814;83;20915;-42
2021/03/18 01:51:12;;;;;;;40.73;21.68;;;;;;;0.12;96.01;99746.73;1719785;83;21038;-42
2021/03/18 01:53:41;;;;;;;38.53;20.70;;;;;;;0.12;96.03;99744.18;1719869;83;21489;-43
2021/03/18 01:56:08;;;;;;;41.05;20.52;;;;;;;0.13;96.05;99749.70;1719750;83;21203;-43
2021/03/18 01:58:36;;;;;;;34.43;19.57;;;;;;;0.13;96.06;99745.89;1719750;83;21006;-42
2021/03/18 02:01:09;;;;;;;36.15;18.32;;;;;;;0.15;96.06;99751.02;1719797;83;21500;-43
2021/03/18 02:03:37;;;;;;;35.15;20.35;;;;;;;0.16;96.05;99755.67;1719774;83;20978;-42
2021/03/18 02:06:05;;;;;;;42.15;20.65;;;;;;;0.13;96.06;99750.14;1719823;83;20895;-43
2021/03/18 02:08:35;;;;;;;37.75;19.25;;;;;;;0.12;96.07;99753.49;1719821;83;22210;-43
2021/03/18 02:11:04;;;;;;;35.88;19.48;;;;;;;0.13;96.09;99753.96;1719628;83;21026;-42
2021/03/18 02:13:32;;;;;;;35.98;18.40;;;;;;;0.14;96.08;99755.67;1719832;83;21608;-43
2021/03/18 02:16:05;;;;;;;33.13;18.73;;;;;;;0.16;96.07;99753.12;1719733;83;20978;-42
2021/03/18 02:18:54;;;;;;;41.88;19.65;;;;;;;0.14;96.02;99755.67;1693699;83;21090;-42
2021/03/18 02:22:00;;;;;;;39.83;19.75;;;;;;;0.14;96.03;99760.77;1719769;83;21605;-44
2021/03/18 02:25:05;;;;;;;24.05;14.90;;;;;;;0.15;96.00;99772.66;1698526;83;21058;-42
2021/03/18 02:28:26;;;;;;;37.63;17.82;;;;;;;0.14;96.00;99775.59;1719723;82;21082;-43
2021/03/18 02:31:14;;;;;;;30.60;18.32;;;;;;;0.14;95.94;99775.59;1719478;83;20967;-43
2021/03/18 02:33:56;;;;;;;30.35;18.35;;;;;;;0.13;95.99;99775.16;1719779;83;21074;-43
2021/03/18 02:36:36;;;;;;;34.40;18.00;;;;;;;0.13;96.03;99778.14;1706075;83;21163;-43
2021/03/18 02:39:08;;;;;;;31.27;17.30;;;;;;;0.13;96.01;99781.96;1719742;83;21030;-43
2021/03/18 02:41:53;;;;;;;29.63;16.30;;;;;;;0.13;96.01;99786.62;1693697;83;21016;-43
2021/03/18 02:44:27;;;;;;;26.75;16.00;;;;;;;0.15;95.96;99787.92;1719671;83;21022;-43
2021/03/18 02:47:10;;;;;;;29.32;14.63;;;;;;;0.13;95.87;99784.08;1707151;83;21044;-43
2021/03/18 02:49:43;;;;;;;29.60;14.35;;;;;;;0.14;95.93;99783.67;1706225;84;21556;-42
2021/03/18 02:52:13;;;;;;;30.10;14.15;;;;;;;0.15;95.89;99786.66;1706123;83;21018;-43
2021/03/18 02:54:42;;;;;;;29.10;15.53;;;;;;;0.14;95.90;99786.22;1706214;84;20956;-43
2021/03/18 02:57:11;;;;;;;25.57;14.58;;;;;;;0.14;95.85;99790.03;1706171;84;21026;-42
2021/03/18 02:59:40;;;;;;;34.23;15.13;;;;;;;0.15;95.83;99786.66;1706312;83;20948;-43
2021/03/18 03:02:12;;;;;;;32.60;13.95;;;;;;;0.16;95.80;99786.22;1706238;84;21214;-43
2021/03/18 03:04:40;;;;;;;23.98;14.15;;;;;;;0.15;95.79;99789.20;1706103;83;21078;-43
2021/03/18 03:07:09;;;;;;;34.50;14.25;;;;;;;0.14;95.76;99788.33;1686367;84;20995;-42
2021/03/18 03:09:36;;;;;;;28.77;13.13;;;;;;;0.13;95.76;99792.98;1706309;84;21576;-43
2021/03/18 03:12:06;;;;;;;28.12;14.95;;;;;;;0.14;95.76;99793.86;1706228;82;21007;-43
2021/03/18 03:14:33;;;;;;;29.87;14.23;;;;;;;0.14;95.70;99802.77;1706289;84;21698;-43
2021/03/18 03:17:02;;;;;;;33.00;12.98;;;;;;;0.14;95.68;99800.22;1706097;84;21106;-43
2021/03/18 03:19:29;;;;;;;26.42;13.05;;;;;;;0.15;95.67;99803.20;1706193;83;21027;-43
2021/03/18 03:21:57;;;;;;;27.52;13.48;;;;;;;0.14;95.68;99802.33;1706113;84;20943;-42
2021/03/18 03:24:26;;;;;;;41.30;15.40;;;;;;;0.16;95.68;99806.59;1706184;84;20939;-43
2021/03/18 03:26:54;;;;;;;37.38;13.62;;;;;;;0.15;95.62;99808.29;1706126;82;21219;-43
2021/03/18 03:29:22;;;;;;;37.15;15.55;;;;;;;0.16;95.59;99807.86;1663604;84;21007;-42
2021/03/18 03:31:51;;;;;;;34.55;15.03;;;;;;;0.15;95.60;99805.75;1706146;84;21019;-43
2021/03/18 03:34:19;;;;;;;31.37;14.33;;;;;;;0.13;95.61;99805.71;1706156;84;21035;-43
2021/03/18 03:36:48;;;;;;;38.05;13.72;;;;;;;0.13;95.60;99797.23;1706212;84;21043;-43
2021/03/18 03:39:16;;;;;;;36.03;14.93;;;;;;;0.13;95.58;99798.08;1706180;84;21385;-42
2021/03/18 03:41:44;;;;;;;38.40;13.70;;;;;;;0.12;95.55;99795.50;1706120;84;21458;-43
2021/03/18 03:44:12;;;;;;;30.97;14.60;;;;;;;0.13;95.57;99798.51;1706175;84;20959;-42
2021/03/18 03:46:40;;;;;;;44.88;14.47;;;;;;;0.12;95.54;99803.13;1715834;83;21493;-43
2021/03/18 03:49:08;;;;;;;53.33;14.47;;;;;;;0.09;95.57;99801.42;1719741;83;20936;-43
2021/03/18 03:52:07;;;;;;;46.77;13.85;;;;;;;0.08;95.55;99807.74;1719691;83;22410;-42
2021/03/18 03:54:37;;;;;;;37.40;13.35;;;;;;;0.09;95.55;99809.45;1719602;83;20963;-43
2021/03/18 03:57:21;;;;;;;46.00;14.55;;;;;;;0.09;95.56;99803.09;1719725;83;20951;-42
2021/03/18 03:59:49;;;;;;;43.87;14.18;;;;;;;0.10;95.55;99808.62;1719713;83;21069;-43
2021/03/18 04:02:16;;;;;;;44.42;13.75;;;;;;;0.07;95.53;99809.45;1693343;83;20923;-43
2021/03/18 04:04:47;;;;;;;40.38;13.68;;;;;;;0.07;95.49;99811.13;1719691;83;21377;-42
2021/03/18 04:07:28;;;;;;;38.28;15.23;;;;;;;0.05;95.50;99814.06;1719579;83;21018;-43
2021/03/18 04:09:58;;;;;;;47.40;13.78;;;;;;;0.04;95.47;99812.36;1719675;83;20951;-42
2021/03/18 04:12:30;;;;;;;43.98;14.33;;;;;;;0.05;95.46;99810.25;1693515;83;21026;-43
2021/03/18 04:15:12;;;;;;;46.73;13.43;;;;;;;0.03;95.41;99808.97;1719739;82;20965;-41
2021/03/18 04:17:42;;;;;;;41.45;13.58;;;;;;;0.04;95.42;99811.09;1719684;83;21367;-43
2021/03/18 04:20:12;;;;;;;39.60;14.18;;;;;;;0.04;95.40;99814.50;1693693;83;21701;-41
2021/03/18 04:22:42;;;;;;;37.90;13.65;;;;;;;0.01;95.42;99807.23;1719776;83;21459;-43
2021/03/18 04:25:12;;;;;;;48.50;14.45;;;;;;;0.01;95.40;99825.05;1693344;83;21578;-42
2021/03/18 04:27:40;;;;;;;43.13;14.43;;;;;;;0.01;95.36;99819.95;1719622;82;21022;-43
2021/03/18 04:30:10;;;;;;;42.65;15.10;;;;;;;0.00;95.34;99815.30;1719735;83;21216;-44
2021/03/18 04:32:38;;;;;;;55.28;13.83;;;;;;;-0.01;95.31;99822.06;1719776;83;21022;-43
2021/03/18 04:35:09;;;;;;;46.58;14.58;;;;;;;0.02;95.31;99829.30;1719770;83;20939;-43
2021/03/18 04:37:36;;;;;;;51.92;14.55;;;;;;;0.03;95.31;99824.65;1719776;83;21077;-43
2021/03/18 04:40:07;;;;;;;48.95;13.62;;;;;;;0.01;95.30;99828.46;1719867;83;21492;-43
2021/03/18 04:42:35;;;;;;;48.25;13.35;;;;;;;0.03;95.28;99828.06;1719837;83;21384;-43
2021/03/18 04:45:05;;;;;;;42.10;12.75;;;;;;;0.03;95.24;99831.88;1719825;83;21098;-44
2021/03/18 04:47:34;;;;;;;41.80;12.15;;;;;;;0.03;95.22;99834.42;1707228;83;21035;-43
2021/03/18 04:50:05;;;;;;;48.85;13.08;;;;;;;0.02;95.17;99842.02;1706366;84;21047;-43
2021/03/18 04:52:32;;;;;;;40.10;12.13;;;;;;;-0.01;95.15;99841.55;1706208;84;21014;-44
2021/03/18 04:55:00;;;;;;;38.73;11.88;;;;;;;-0.02;95.14;99839.84;1706313;84;22133;-43
2021/03/18 04:57:27;;;;;;;45.17;13.48;;;;;;;-0.04;95.14;99845.33;1706253;83;21006;-45
2021/03/18 04:59:57;;;;;;;44.65;11.63;;;;;;;-0.03;95.15;99849.58;1706004;84;21047;-44
2021/03/18 05:02:25;;;;;;;40.73;12.68;;;;;;;-0.02;95.15;99847.07;1706304;82;21503;-46
2021/03/18 05:04:55;;;;;;;43.28;13.00;;;;;;;-0.04;95.14;99850.02;1703748;83;20973;-45
2021/03/18 05:07:22;;;;;;;39.53;11.97;;;;;;;-0.04;95.18;99856.37;1706310;83;21414;-44
2021/03/18 05:09:49;;;;;;;45.05;11.65;;;;;;;-0.03;95.17;99861.03;1706194;84;20971;-43
2021/03/18 05:12:17;;;;;;;49.45;12.60;;;;;;;-0.02;95.17;99858.92;1706291;84;20951;-45
2021/03/18 05:14:46;;;;;;;45.88;13.10;;;;;;;0.01;95.21;99860.67;1706299;83;20920;-45
2021/03/18 05:17:18;;;;;;;50.78;11.57;;;;;;;0.02;95.21;99861.11;1706181;83;20984;-46
2021/03/18 05:19:46;;;;;;;55.80;12.30;;;;;;;0.03;95.23;99871.73;1706261;84;21449;-42
2021/03/18 05:22:14;;;;;;;63.00;11.05;;;;;;;0.03;95.17;99866.64;1706215;84;21083;-46
2021/03/18 05:24:41;;;;;;;58.55;11.85;;;;;;;0.02;95.19;99868.75;1706215;84;21019;-43
2021/03/18 05:27:09;;;;;;;49.48;12.25;;;;;;;0.01;95.18;99869.18;1706129;82;20947;-46
2021/03/18 05:29:37;;;;;;;54.42;11.70;;;;;;;-0.01;95.14;99881.00;1706343;84;21011;-45
2021/03/18 05:32:05;;;;;;;60.43;12.63;;;;;;;-0.01;95.18;99880.59;1706262;84;21384;-44
2021/03/18 05:34:33;;;;;;;45.63;11.25;;;;;;;-0.02;95.16;99878.02;1706195;84;21039;-45
2021/03/18 05:37:01;;;;;;;62.25;13.08;;;;;;;-0.04;95.17;99887.31;1706242;84;21034;-45
2021/03/18 05:39:28;;;;;;;43.68;12.00;;;;;;;-0.04;95.19;99891.13;1706218;84;21095;-44
2021/03/18 05:41:56;;;;;;;65.05;11.90;;;;;;;-0.04;95.19;99886.91;1706241;83;21015;-45
2021/03/18 05:44:24;;;;;;;54.85;11.40;;;;;;;-0.03;95.19;99899.20;1706323;84;21392;-45
2021/03/18 05:46:51;;;;;;;58.65;11.18;;;;;;;-0.03;95.20;99896.26;1712960;83;21040;-45
2021/03/18 05:49:19;;;;;;;76.60;12.07;;;;;;;-0.03;95.17;99897.53;1719740;83;21002;-43
2021/03/18 05:51:49;;;;;;;73.28;13.43;;;;;;;-0.04;95.16;99904.73;1719760;83;20959;-45
2021/03/18 05:54:19;;;;;;;55.88;10.28;;;;;;;-0.03;95.16;99914.08;1719903;83;21576;-43
2021/03/18 05:56:48;;;;;;;63.30;12.07;;;;;;;-0.02;95.13;99907.28;1694001;83;21459;-44
2021/03/18 05:59:17;;;;;;;68.28;11.97;;;;;;;-0.03;95.13;99902.63;1719684;83;21011;-45
2021/03/18 06:01:44;;;;;;;82.67;11.83;;;;;;;-0.01;95.18;99908.59;1719810;82;21476;-44
2021/03/18 06:04:12;;;;;;;74.40;13.72;;;;;;;0.02;95.20;99903.98;1719804;83;21007;-45
2021/03/18 06:06:43;;;;;;;88.45;12.43;;;;;;;0.04;95.24;99898.89;1719772;82;21026;-43
2021/03/18 06:09:10;;;;;;;62.62;11.53;;;;;;;0.08;95.25;99907.89;1719882;83;21222;-44
2021/03/18 06:11:39;;;;;;;54.88;11.73;;;;;;;0.13;95.24;99907.97;1719693;83;21077;-45
2021/03/18 06:14:07;;;;;;;58.10;10.63;;;;;;;0.15;95.17;99907.57;1719834;83;21488;-45
2021/03/18 06:16:34;;;;;;;81.47;14.40;;;;;;;0.16;95.11;99910.55;1719702;83;20963;-42
2021/03/18 06:19:06;;;;;;;64.80;13.72;;;;;;;0.15;95.04;99907.57;1719797;83;21051;-44
2021/03/18 06:21:54;;;;;;;65.55;12.05;;;;;;;0.17;95.00;99907.58;1719770;83;21376;-44
2021/03/18 06:24:27;;;;;;;61.45;12.47;;;;;;;0.16;94.98;99914.38;1719760;83;21508;-44
2021/03/18 06:26:54;;;;;;;62.98;10.25;;;;;;;0.17;94.96;99905.91;1719746;82;21632;-43
2021/03/18 06:29:37;;;;;;;72.58;11.35;;;;;;;0.20;94.91;99912.71;1719702;82;21049;-43
2021/03/18 06:32:18;;;;;;;57.88;10.60;;;;;;;0.22;94.90;99911.05;1719787;83;20947;-45
2021/03/18 06:34:52;;;;;;;64.75;11.88;;;;;;;0.23;94.80;99911.48;1719753;83;21567;-45
2021/03/18 06:37:42;;;;;;;61.65;9.83;;;;;;;0.23;94.74;99909.81;1719794;83;21556;-45
2021/03/18 06:40:18;;;;;;;60.08;10.35;;;;;;;0.24;94.74;99910.25;1719759;83;21069;-43
2021/03/18 06:43:01;;;;;;;66.53;12.75;;;;;;;0.27;94.67;99910.29;1719711;83;21034;-42
2021/03/18 06:45:34;;;;;;;71.28;11.05;;;;;;;0.29;94.57;99909.05;1716925;83;21101;-44
2021/03/18 06:48:05;;;;;;;56.83;11.18;;;;;;;0.30;94.56;99913.71;1719764;83;22265;-42
2021/03/18 06:50:36;;;;;;;54.27;10.03;;;;;;;0.32;94.55;99915.86;1719734;83;21623;-44
2021/03/18 06:53:21;;;;;;;72.00;10.50;;;;;;;0.34;94.54;99916.34;1719745;83;21571;-43
2021/03/18 06:55:49;;;;;;;54.58;10.85;;;;;;;0.37;94.56;99915.10;1719239;83;21046;-44
2021/03/18 06:58:23;;;;;;;63.35;10.38;;;;;;;0.43;94.59;99916.89;1719768;83;20923;-46
2021/03/18 07:00:58;;;;;;;63.80;11.22;;;;;;;0.48;94.42;99921.62;1719727;83;21147;-44
2021/03/18 07:03:33;;;;;;;78.80;11.50;;;;;;;0.48;94.29;99923.30;1719827;83;21061;-42
2021/03/18 07:06:04;;;;;;;66.90;11.45;;;;;;;0.48;94.22;99921.62;1719780;83;20943;-45
2021/03/18 07:08:38;;;;;;;70.83;11.40;;;;;;;0.47;94.11;99929.23;1719655;83;21466;-43
2021/03/18 07:11:22;;;;;;;66.70;11.08;;;;;;;0.47;94.01;99930.11;1719713;83;20896;-44
2021/03/18 07:13:51;;;;;;;52.20;8.40;;;;;;;0.47;93.94;99930.11;1719968;83;21207;-43
2021/03/18 07:16:19;;;;;;;58.17;11.55;;;;;;;0.48;93.87;99926.72;1719642;83;21006;-43
2021/03/18 07:18:58;;;;;;;76.30;11.68;;;;;;;0.50;93.87;99925.05;1719542;83;21109;-44
2021/03/18 07:21:39;;;;;;;67.90;10.60;;;;;;;0.57;93.92;99922.18;1719594;83;21011;-45
2021/03/18 07:24:25;;;;;;;62.27;10.95;;;;;;;0.63;93.90;99922.66;1719807;83;20904;-45
2021/03/18 07:26:57;;;;;;;76.12;11.65;;;;;;;0.64;93.85;99925.67;1696417;83;21449;-46
2021/03/18 07:29:28;;;;;;;82.95;12.78;;;;;;;0.74;93.98;99933.88;1719658;83;21011;-45
2021/03/18 07:31:56;;;;;;;82.90;11.57;;;;;;;0.84;93.98;99934.85;1719669;83;21039;-45
2021/03/18 07:34:29;;;;;;;70.80;10.78;;;;;;;0.88;93.74;99934.05;1719756;83;21587;-43
2021/03/18 07:36:56;;;;;;;71.20;11.35;;;;;;;0.85;93.47;99928.48;1717998;83;21018;-45
2021/03/18 07:39:25;;;;;;;77.40;11.97;;;;;;;0.82;93.37;99933.55;1719743;83;22411;-45
2021/03/18 07:41:53;;;;;;;66.17;10.43;;;;;;;0.82;93.26;99931.00;1719591;82;21034;-43
2021/03/18 07:44:21;;;;;;;59.23;10.78;;;;;;;0.80;93.21;99933.94;1719708;82;20908;-45
2021/03/18 07:46:49;;;;;;;74.45;11.85;;;;;;;0.82;93.26;99939.08;1716871;83;21039;-43
2021/03/18 07:49:23;;;;;;;77.53;13.83;;;;;;;0.82;93.30;99945.02;1706156;83;21311;-44
2021/03/18 07:51:54;;;;;;;81.40;11.75;;;;;;;0.82;93.09;99948.84;1706147;83;22256;-43
2021/03/18 07:54:22;;;;;;;81.97;12.70;;;;;;;0.83;93.15;99946.72;1706068;84;21002;-43
2021/03/18 07:56:55;;;;;;;62.27;10.43;;;;;;;0.86;93.17;99944.21;1706142;83;21016;-43
2021/03/18 07:59:32;;;;;;;66.10;10.38;;;;;;;0.88;93.04;99953.56;1706109;84;21023;-43
2021/03/18 08:02:22;;;;;;;76.60;10.32;;;;;;;0.88;92.93;99949.34;1706187;83;21059;-42
2021/03/18 08:04:53;;;;;;;80.17;10.43;;;;;;;0.89;92.77;99948.94;1706171;83;21827;-44
2021/03/18 08:07:48;;;;;;;69.95;10.25;;;;;;;0.89;92.83;99947.66;1705167;82;21015;-44
2021/03/18 08:10:24;;;;;;;59.33;9.55;;;;;;;0.93;92.77;99951.96;1706340;84;21173;-44
2021/03/18 08:12:54;;;;;;;64.77;10.68;;;;;;;0.96;92.71;99955.39;1706407;84;21553;-44
2021/03/18 08:15:42;;;;;;;75.32;10.10;;;;;;;1.00;92.74;99955.86;1706294;84;21181;-45
2021/03/18 08:18:23;;;;;;;56.23;9.78;;;;;;;1.07;92.67;99954.25;1706277;84;21146;-44
2021/03/18 08:20:58;;;;;;;57.27;9.75;;;;;;;1.12;92.50;99956.87;1706207;82;21225;-44
2021/03/18 08:23:33;;;;;;;68.30;9.23;;;;;;;1.13;92.35;99957.30;1706325;84;21010;-45
2021/03/18 08:26:08;;;;;;;66.25;8.83;;;;;;;1.23;92.08;99951.89;1706310;82;21098;-42
2021/03/18 08:28:59;;;;;;;72.80;11.00;;;;;;;1.23;92.08;99951.89;1706528;84;21127;-44
2021/03/18 08:31:51;;;;;;;68.45;8.93;;;;;;;1.25;91.95;99956.59;1706326;83;21011;-46
2021/03/18 08:34:20;;;;;;;63.20;10.03;;;;;;;1.21;91.66;99962.50;1706339;84;21158;-43
2021/03/18 08:36:55;;;;;;;68.75;8.90;;;;;;;1.21;91.69;99958.67;1706325;84;21668;-44
2021/03/18 08:39:49;;;;;;;70.90;8.68;;;;;;;1.26;91.81;99960.45;1706354;83;21623;-45
2021/03/18 08:42:35;;;;;;;54.40;9.20;;;;;;;1.32;91.58;99959.64;1705835;82;20955;-44
2021/03/18 08:45:20;;;;;;;81.47;11.10;;;;;;;1.33;91.36;99962.63;1706432;84;22295;-44
2021/03/18 08:47:51;;;;;;;62.20;10.85;;;;;;;1.34;91.39;99954.57;1708899;83;20991;-45
2021/03/18 08:50:30;;;;;;;55.52;9.60;;;;;;;1.38;91.29;99957.16;1714273;83;21591;-44
2021/03/18 08:52:58;;;;;;;51.70;9.53;;;;;;;1.40;91.29;99957.19;1714126;83;21027;-46
2021/03/18 08:55:46;;;;;;;66.07;10.85;;;;;;;1.45;91.23;99951.71;1714196;83;20892;-45
2021/03/18 08:58:19;;;;;;;47.43;8.43;;;;;;;1.47;91.15;99949.19;1686766;83;21339;-43
2021/03/18 09:00:45;;;;;;;71.95;9.73;;;;;;;1.49;91.02;99950.05;1713498;83;21007;-45
2021/03/18 09:03:17;;;;;;;53.40;8.73;;;;;;;1.54;91.02;99953.10;1714134;83;21101;-44
2021/03/18 09:06:05;;;;;;;65.10;10.23;;;;;;;1.60;90.95;99952.28;1714048;83;20971;-45
2021/03/18 09:08:35;;;;;;;58.30;9.50;;;;;;;1.60;90.80;99959.94;1686713;83;21062;-45
2021/03/18 09:11:05;;;;;;;58.30;9.45;;;;;;;1.61;90.70;99960.38;1714197;83;20915;-46
2021/03/18 09:13:35;;;;;;;60.30;9.60;;;;;;;1.66;90.59;99961.70;1714146;83;21114;-44
2021/03/18 09:16:04;;;;;;;49.40;9.00;;;;;;;1.70;90.44;99959.62;1714252;83;21137;-44
2021/03/18 09:18:33;;;;;;;58.83;9.68;;;;;;;1.76;90.27;99960.95;1714199;83;21607;-45
2021/03/18 09:21:12;;;;;;;41.68;8.43;;;;;;;1.80;90.16;99966.55;1714159;83;20984;-46
2021/03/18 09:23:44;;;;;;;51.02;7.30;;;;;;;1.85;90.02;99966.56;1714096;83;21372;-44
2021/03/18 09:26:15;;;;;;;38.10;6.28;;;;;;;1.92;89.70;99970.91;1714083;82;21101;-43
2021/03/18 09:28:48;;;;;;;43.92;6.62;;;;;;;2.03;89.22;99971.41;1714167;83;20963;-45
2021/03/18 09:31:21;;;;;;;47.40;8.15;;;;;;;2.12;88.80;99970.20;1714115;83;21049;-43
2021/03/18 09:33:52;;;;;;;37.33;7.65;;;;;;;2.17;88.04;99964.74;1714180;82;20963;-44
2021/03/18 09:36:24;;;;;;;42.67;7.65;;;;;;;2.24;87.79;99964.34;1714036;83;21218;-45
2021/03/18 09:39:09;;;;;;;45.60;6.00;;;;;;;2.34;87.71;99964.87;1714191;83;21684;-43
2021/03/18 09:41:46;;;;;;;42.62;6.67;;;;;;;2.42;87.08;99970.04;1714064;83;20944;-44
2021/03/18 09:44:20;;;;;;;43.78;7.08;;;;;;;2.52;86.33;99974.77;1714084;83;22111;-42
2021/03/18 09:46:59;;;;;;;31.15;5.67;;;;;;;2.56;86.19;99973.53;1714139;83;21487;-45
2021/03/18 09:49:33;;;;;;;48.35;7.15;;;;;;;2.64;85.78;99977.42;1713857;83;22868;-43
2021/03/18 09:52:05;;;;;;;40.23;7.03;;;;;;;2.66;84.97;99976.16;1714098;83;21027;-44
2021/03/18 09:54:32;;;;;;;37.38;6.35;;;;;;;2.66;84.77;99976.16;1714104;83;20967;-43
2021/03/18 09:57:02;;;;;;;33.08;6.58;;;;;;;2.68;84.35;99975.75;1714056;83;21022;-44
2021/03/18 09:59:30;;;;;;;34.50;6.78;;;;;;;2.68;83.54;99974.03;1714161;83;20987;-44
2021/03/18 10:01:58;;;;;;;41.90;6.97;;;;;;;2.68;83.23;99979.14;1714148;83;21214;-43
2021/03/18 10:04:26;;;;;;;48.85;6.78;;;;;;;2.69;82.41;99974.91;1714044;83;20939;-44
2021/03/18 10:06:57;;;;;;;33.60;6.78;;;;;;;2.65;82.66;99983.37;1714183;83;21117;-44
2021/03/18 10:09:31;;;;;;;43.17;7.20;;;;;;;2.63;82.55;99985.94;1714096;83;20931;-44
2021/03/18 10:12:05;;;;;;;36.60;7.60;;;;;;;2.60;82.77;99983.36;1714152;83;20998;-44
2021/03/18 10:14:41;;;;;;;62.25;7.70;;;;;;;2.58;82.91;99984.61;1714134;83;21328;-43
2021/03/18 10:17:27;;;;;;;50.30;7.65;;;;;;;2.59;83.19;99985.48;1714169;82;21495;-46
2021/03/18 10:20:07;;;;;;;65.92;9.10;;;;;;;2.58;83.30;99987.17;1688636;83;21620;-43
2021/03/18 10:22:37;;;;;;;61.23;8.10;;;;;;;2.58;83.29;99986.33;1714071;83;21058;-44
2021/03/18 10:25:19;;;;;;;47.85;7.97;;;;;;;2.58;83.39;99985.89;1714081;83;20943;-45
2021/03/18 10:27:54;;;;;;;75.75;9.50;;;;;;;2.59;83.27;99990.59;1714044;82;21210;-45
2021/03/18 10:30:23;;;;;;;69.05;8.55;;;;;;;2.58;82.98;99998.67;1713726;83;21042;-45
2021/03/18 10:33:22;;;;;;;41.85;8.45;;;;;;;2.51;82.63;99993.09;1714161;82;22285;-44
2021/03/18 10:36:00;;;;;;;60.90;9.43;;;;;;;2.46;82.66;99992.21;1714036;83;21193;-44
2021/03/18 10:38:37;;;;;;;65.22;9.58;;;;;;;2.48;82.27;99995.63;1714122;83;21034;-44
2021/03/18 10:41:09;;;;;;;89.45;10.43;;;;;;;2.47;82.30;100001.58;1714033;83;21150;-43
2021/03/18 10:43:41;;;;;;;67.35;9.13;;;;;;;2.43;82.27;99992.19;1714044;83;21019;-44
2021/03/18 10:46:11;;;;;;;69.97;9.03;;;;;;;2.41;82.34;99997.72;1713954;83;21011;-43
2021/03/18 10:48:39;;;;;;;58.65;9.15;;;;;;;2.41;82.46;100004.94;1717054;82;21524;-42
2021/03/18 10:51:12;;;;;;;78.65;10.30;;;;;;;2.45;82.65;100004.55;1719831;83;21074;-43
2021/03/18 10:53:42;;;;;;;69.32;9.23;;;;;;;2.47;82.53;100001.58;1719838;83;22285;-43
2021/03/18 10:56:12;;;;;;;74.50;11.20;;;;;;;2.52;82.75;100000.31;1719560;83;21066;-44
2021/03/18 10:58:42;;;;;;;88.03;10.32;;;;;;;2.54;82.73;99996.11;1719698;82;21094;-43
2021/03/18 11:01:12;;;;;;;70.65;10.78;;;;;;;2.57;82.66;100000.80;1719662;83;21056;-44
2021/03/18 11:03:43;;;;;;;78.28;10.48;;;;;;;2.55;82.21;99995.26;1719696;83;20939;-42
2021/03/18 11:06:23;;;;;;;82.85;11.00;;;;;;;2.53;82.08;99998.23;1719683;83;21146;-43
2021/03/18 11:08:55;;;;;;;79.65;10.50;;;;;;;2.51;82.16;99996.05;1719765;83;21508;-43
2021/03/18 11:11:28;;;;;;;89.62;11.75;;;;;;;2.55;82.21;99999.09;1719681;83;21026;-44
2021/03/18 11:14:12;;;;;;;70.40;11.83;;;;;;;2.57;82.21;99996.13;1720053;83;21046;-44
2021/03/18 11:16:40;;;;;;;67.95;10.38;;;;;;;2.61;82.08;100005.52;1719668;83;20994;-43
2021/03/18 11:19:13;;;;;;;74.70;12.15;;;;;;;2.63;81.76;100010.63;1719692;83;21377;-42
2021/03/18 11:21:43;;;;;;;77.70;10.95;;;;;;;2.58;81.70;100003.78;1719636;82;21026;-44
2021/03/18 11:24:16;;;;;;;97.37;12.63;;;;;;;2.59;81.68;100005.48;1719747;83;20999;-43
2021/03/18 11:26:58;;;;;;;89.62;13.43;;;;;;;2.58;81.34;100014.45;1719573;82;21488;-44
2021/03/18 11:29:28;;;;;;;80.30;11.38;;;;;;;2.52;80.90;100005.43;1719745;83;21014;-42
2021/03/18 11:31:58;;;;;;;93.67;11.00;;;;;;;2.50;80.87;100005.44;1719665;83;21374;-43
2021/03/18 11:34:29;;;;;;;76.30;10.78;;;;;;;2.50;80.96;100002.02;1719687;82;21525;-43
2021/03/18 11:36:59;;;;;;;86.10;11.93;;;;;;;2.50;80.98;100010.95;1719751;83;21018;-42
2021/03/18 11:39:30;;;;;;;77.00;11.68;;;;;;;2.51;81.10;100009.70;1719709;83;21042;-43
2021/03/18 11:41:58;;;;;;;68.78;11.35;;;;;;;2.52;80.86;100013.97;1693271;83;21575;-42
2021/03/18 11:44:28;;;;;;;93.90;14.10;;;;;;;2.52;80.80;100006.30;1719766;83;22405;-43
2021/03/18 11:47:03;;;;;;;90.47;13.05;;;;;;;2.49;80.78;100006.69;1719582;83;21066;-43
2021/03/18 11:49:31;;;;;;;113.07;14.17;;;;;;;2.48;81.07;100002.02;1709754;83;21043;-43
2021/03/18 11:52:00;;;;;;;92.33;13.93;;;;;;;2.53;81.05;100004.17;1706144;82;21027;-43